createdAt,value
2022-09-01T02:08:15.327Z,80.32
2022-09-01T02:09:15.324Z,80.51
2022-09-01T02:10:15.339Z,80.60
2022-09-01T02:11:15.345Z,80.60
2022-09-01T02:12:16.047Z,80.70
2022-09-01T02:13:15.360Z,80.60
2022-09-01T02:14:15.361Z,80.60
2022-09-01T02:15:15.377Z,80.51
2022-09-01T02:16:15.452Z,80.70
2022-09-01T02:17:15.386Z,80.51
2022-09-01T02:18:15.399Z,80.22
2022-09-01T02:19:16.016Z,80.41
2022-09-01T02:20:15.414Z,80.22
2022-09-01T02:21:18.560Z,80.60
2022-09-01T02:22:15.430Z,80.79
2022-09-01T02:23:15.433Z,80.89
2022-09-01T02:24:15.447Z,80.60
2022-09-01T02:25:15.450Z,80.60
2022-09-01T02:26:16.936Z,80.89
2022-09-01T02:27:15.473Z,80.79
2022-09-01T02:28:15.473Z,80.51
2022-09-01T02:29:15.483Z,80.89
2022-09-01T02:30:15.491Z,80.89
2022-09-01T02:31:15.570Z,80.89
2022-09-01T02:32:15.518Z,80.70
2022-09-01T02:33:15.517Z,80.60
2022-09-01T02:34:15.526Z,81.08
2022-09-01T02:35:15.540Z,80.70
2022-09-01T02:36:15.545Z,80.70
2022-09-01T02:37:15.558Z,80.93
2022-09-01T02:38:15.629Z,81.12
2022-09-01T02:39:15.577Z,80.74
2022-09-01T02:40:15.639Z,80.74
2022-09-01T02:41:15.587Z,80.89
2022-09-01T02:42:15.596Z,80.74
2022-09-01T02:43:15.603Z,81.31
2022-09-01T02:44:15.613Z,80.74
2022-09-01T02:45:15.621Z,80.93
2022-09-01T02:46:15.704Z,80.74
2022-09-01T02:47:15.646Z,80.93
2022-09-01T02:48:15.708Z,80.74
2022-09-01T02:49:15.658Z,80.74
2022-09-01T02:50:15.666Z,80.93
2022-09-01T02:51:15.680Z,80.74
2022-09-01T02:52:15.692Z,80.74
2022-09-01T02:53:15.699Z,80.74
2022-09-01T02:54:15.702Z,80.93
2022-09-01T02:55:15.712Z,80.83
2022-09-01T02:56:15.719Z,81.02
2022-09-01T02:57:15.729Z,80.93
2022-09-01T02:58:15.811Z,80.93
2022-09-01T02:59:15.746Z,80.74
2022-09-01T03:00:15.762Z,81.12
2022-09-01T03:01:15.780Z,80.93
2022-09-01T03:02:15.772Z,80.93
2022-09-01T03:03:15.783Z,80.45
2022-09-01T03:04:15.799Z,80.93
2022-09-01T03:05:15.809Z,80.64
2022-09-01T03:06:15.817Z,80.55
2022-09-01T03:07:15.818Z,80.64
2022-09-01T03:08:15.916Z,80.45
2022-09-01T03:09:15.846Z,80.45
2022-09-01T03:10:15.856Z,80.64
2022-09-01T03:11:15.861Z,79.97
2022-09-01T03:12:15.865Z,80.40
2022-09-01T03:13:15.872Z,80.01
2022-09-01T03:14:15.881Z,80.07
2022-09-01T03:15:15.890Z,80.07
2022-09-01T03:16:15.978Z,80.26
2022-09-01T03:17:15.910Z,79.97
2022-09-01T03:18:15.918Z,79.97
2022-09-01T03:19:15.933Z,79.91
2022-09-01T03:20:15.937Z,79.97
2022-09-01T03:21:15.945Z,80.11
2022-09-01T03:22:15.960Z,79.91
2022-09-01T03:23:15.970Z,79.82
2022-09-01T03:24:15.974Z,79.34
2022-09-01T03:25:15.984Z,79.53
2022-09-01T03:26:16.003Z,79.05
2022-09-01T03:27:16.002Z,79.34
2022-09-01T03:28:16.129Z,79.72
2022-09-01T03:29:16.026Z,79.63
2022-09-01T03:30:16.036Z,79.44
2022-09-01T03:31:16.099Z,79.44
2022-09-01T03:32:16.130Z,78.77
2022-09-01T03:33:16.055Z,79.34
2022-09-01T03:34:16.065Z,79.14
2022-09-01T03:35:16.091Z,79.05
2022-09-01T03:36:16.083Z,78.67
2022-09-01T03:37:16.091Z,78.57
2022-09-01T03:38:16.134Z,78.77
2022-09-01T03:39:16.842Z,78.57
2022-09-01T03:40:16.210Z,78.67
2022-09-01T03:41:16.138Z,78.28
2022-09-01T03:42:16.137Z,78.38
2022-09-01T03:43:16.146Z,78.47
2022-09-01T03:44:16.165Z,78.38
2022-09-01T03:45:16.166Z,78.19
2022-09-01T03:46:16.282Z,78.28
2022-09-01T03:47:16.194Z,77.61
2022-09-01T03:48:16.233Z,77.51
2022-09-01T03:49:16.202Z,77.80
2022-09-01T03:50:16.219Z,77.80
2022-09-01T03:51:16.220Z,77.33
2022-09-01T03:52:16.232Z,77.51
2022-09-01T03:53:16.240Z,77.13
2022-09-01T03:54:16.256Z,77.33
2022-09-01T03:55:16.265Z,76.94
2022-09-01T03:56:16.275Z,77.23
2022-09-01T03:57:16.283Z,76.94
2022-09-01T03:58:16.290Z,77.04
2022-09-01T03:59:16.294Z,76.37
2022-09-01T04:00:16.305Z,76.46
2022-09-01T04:01:16.344Z,76.37
2022-09-01T04:02:16.421Z,76.65
2022-09-01T04:03:16.337Z,76.46
2022-09-01T04:04:16.349Z,76.27
2022-09-01T04:05:16.349Z,76.75
2022-09-01T04:06:16.359Z,76.84
2022-09-01T04:07:18.968Z,76.37
2022-09-01T04:08:16.534Z,76.56
2022-09-01T04:09:16.387Z,76.27
2022-09-01T04:10:16.404Z,75.89
2022-09-01T04:11:16.417Z,75.89
2022-09-01T04:12:16.416Z,75.70
2022-09-01T04:13:16.432Z,75.70
2022-09-01T04:14:16.435Z,75.82
2022-09-01T04:15:16.442Z,75.89
2022-09-01T04:16:16.511Z,75.70
2022-09-01T04:17:16.461Z,75.31
2022-09-01T04:18:16.499Z,75.40
2022-09-01T04:19:16.486Z,75.40
2022-09-01T04:21:16.506Z,75.50
2022-09-01T04:22:16.514Z,75.70
2022-09-01T04:23:16.518Z,75.21
2022-09-01T04:24:16.533Z,75.50
2022-09-01T04:25:16.544Z,74.93
2022-09-01T04:26:16.552Z,74.83
2022-09-01T04:27:16.562Z,74.93
2022-09-01T04:28:16.599Z,75.02
2022-09-01T04:29:16.581Z,75.40
2022-09-01T04:30:16.586Z,75.12
2022-09-01T04:31:16.620Z,74.93
2022-09-01T04:32:17.225Z,74.83
2022-09-01T04:33:16.617Z,74.93
2022-09-01T04:34:16.624Z,74.73
2022-09-01T04:35:16.629Z,74.93
2022-09-01T04:36:16.636Z,74.93
2022-09-01T04:37:16.655Z,74.93
2022-09-01T04:38:16.717Z,74.44
2022-09-01T04:39:16.672Z,74.44
2022-09-01T04:40:16.729Z,74.44
2022-09-01T04:41:16.684Z,74.54
2022-09-01T04:42:16.691Z,74.16
2022-09-01T04:43:16.708Z,74.73
2022-09-01T04:44:16.723Z,74.44
2022-09-01T04:45:20.514Z,74.54
2022-09-01T04:46:17.769Z,74.26
2022-09-01T04:47:16.739Z,74.35
2022-09-01T04:48:16.776Z,74.16
2022-09-01T04:49:16.758Z,74.35
2022-09-01T04:50:16.774Z,74.35
2022-09-01T04:51:16.784Z,73.87
2022-09-01T04:52:16.785Z,74.26
2022-09-01T04:53:16.794Z,74.16
2022-09-01T04:55:16.822Z,73.87
2022-09-01T04:56:16.828Z,73.39
2022-09-01T04:57:16.839Z,73.30
2022-09-01T04:58:16.936Z,73.68
2022-09-01T04:59:16.856Z,73.49
2022-09-01T05:00:16.869Z,73.87
2022-09-01T05:01:16.932Z,73.49
2022-09-01T05:02:16.989Z,73.77
2022-09-01T05:03:16.887Z,73.68
2022-09-01T05:04:16.898Z,73.77
2022-09-01T05:05:16.907Z,73.68
2022-09-01T05:06:16.915Z,73.87
2022-09-01T05:07:16.923Z,73.68
2022-09-01T05:08:22.996Z,73.52
2022-09-01T05:09:16.954Z,73.62
2022-09-01T05:10:16.952Z,73.33
2022-09-01T05:11:16.968Z,73.33
2022-09-01T05:12:16.974Z,73.33
2022-09-01T05:13:16.989Z,73.14
2022-09-01T05:14:16.991Z,73.33
2022-09-01T05:15:16.999Z,73.33
2022-09-01T05:16:19.393Z,73.24
2022-09-01T05:17:17.019Z,73.33
2022-09-01T05:18:17.095Z,72.56
2022-09-01T05:19:17.046Z,72.66
2022-09-01T05:20:17.054Z,72.95
2022-09-01T05:21:17.074Z,73.04
2022-09-01T05:22:17.066Z,73.04
2022-09-01T05:23:17.074Z,72.66
2022-09-01T05:24:17.095Z,72.66
2022-09-01T05:25:17.103Z,72.66
2022-09-01T05:26:17.177Z,72.56
2022-09-01T05:27:17.114Z,72.75
2022-09-01T05:28:17.200Z,72.56
2022-09-01T05:29:17.134Z,72.56
2022-09-01T05:30:18.560Z,72.95
2022-09-01T05:31:17.198Z,72.37
2022-09-01T05:32:17.160Z,72.28
2022-09-01T05:33:21.557Z,72.08
2022-09-01T05:34:17.185Z,72.28
2022-09-01T05:35:17.189Z,72.18
2022-09-01T05:36:17.198Z,71.89
2022-09-01T05:37:17.213Z,72.08
2022-09-01T05:38:17.425Z,71.51
2022-09-01T05:39:17.233Z,71.31
2022-09-01T05:40:17.320Z,71.31
2022-09-01T05:41:17.253Z,71.41
2022-09-01T05:42:17.254Z,71.41
2022-09-01T05:43:17.271Z,71.31
2022-09-01T05:44:17.282Z,71.31
2022-09-01T05:45:19.912Z,71.61
2022-09-01T05:46:17.360Z,71.31
2022-09-01T05:47:20.344Z,71.41
2022-09-01T05:48:17.312Z,71.22
2022-09-01T05:49:17.321Z,71.22
2022-09-01T05:50:17.331Z,71.03
2022-09-01T05:51:42.305Z,70.84
2022-09-01T05:52:17.356Z,71.31
2022-09-01T05:53:20.122Z,70.84
2022-09-01T05:54:17.368Z,70.74
2022-09-01T05:55:17.386Z,70.64
2022-09-01T05:56:17.389Z,70.97
2022-09-01T05:57:33.944Z,70.58
2022-09-01T05:58:17.507Z,70.97
2022-09-01T06:01:17.581Z,70.78
2022-09-01T06:02:17.722Z,70.49
2022-09-01T06:03:18.708Z,70.10
2022-09-01T06:06:54.960Z,70.78
2022-09-01T06:12:44.559Z,70.39
2022-09-01T06:15:02.182Z,70.39
2022-09-01T06:19:18.159Z,70.39
2022-09-01T06:21:20.750Z,70.87
2022-09-01T06:22:20.780Z,70.68
2022-09-01T06:24:33.374Z,70.39
2022-09-01T06:26:15.918Z,70.58
2022-09-01T06:27:15.927Z,71.25
2022-09-01T06:28:15.936Z,71.06
2022-09-01T06:29:15.952Z,71.06
2022-09-01T06:31:56.072Z,71.16
2022-09-01T06:32:56.080Z,71.45
2022-09-01T06:33:56.088Z,71.45
2022-09-01T06:35:41.273Z,71.45
2022-09-01T06:36:38.658Z,71.64
2022-09-01T06:38:25.050Z,70.97
2022-09-01T06:39:21.216Z,70.58
2022-09-01T06:41:08.787Z,70.68
2022-09-01T06:42:08.785Z,70.39
2022-09-01T06:43:08.804Z,70.29
2022-09-01T06:46:39.701Z,70.49
2022-09-01T06:47:39.688Z,70.97
2022-09-01T06:50:04.785Z,70.39
2022-09-01T06:55:13.955Z,68.70
2022-09-01T06:56:18.010Z,68.12
2022-09-01T06:58:51.627Z,67.22
2022-09-01T07:02:33.809Z,66.39
2022-09-01T07:06:00.824Z,65.59
2022-09-01T07:08:06.192Z,65.59
2022-09-01T07:12:27.924Z,66.00
2022-09-01T07:17:36.143Z,65.72
2022-09-01T07:25:11.728Z,65.75
2022-09-01T07:26:04.403Z,65.84
2022-09-01T07:28:03.080Z,65.37
2022-09-01T07:29:04.268Z,64.22
2022-09-01T07:30:03.099Z,64.31
2022-09-01T07:35:03.133Z,64.50
2022-09-01T07:36:32.786Z,64.60
2022-09-01T07:38:47.258Z,63.83
2022-09-01T07:38:47.575Z,64.22
2022-09-01T07:42:30.578Z,65.66
2022-09-01T07:44:03.218Z,62.13
2022-09-01T07:46:36.765Z,62.61
2022-09-01T07:47:19.885Z,62.32
2022-09-01T07:48:03.649Z,62.13
2022-09-01T07:49:29.521Z,61.87
2022-09-01T07:52:03.336Z,61.87
2022-09-01T07:53:03.314Z,61.97
2022-09-01T07:54:03.320Z,61.00
2022-09-01T07:55:03.326Z,60.94
2022-09-01T07:56:03.340Z,61.04
2022-09-01T07:57:03.343Z,60.68
2022-09-01T07:58:03.362Z,60.58
2022-09-01T07:59:03.367Z,59.58
2022-09-01T08:00:03.380Z,58.89
2022-09-01T08:01:03.389Z,57.43
2022-09-01T08:02:03.456Z,55.57
2022-09-01T08:03:03.423Z,53.97
2022-09-01T08:04:03.418Z,51.89
2022-09-01T08:05:03.427Z,50.29
2022-09-01T08:06:56.004Z,48.32
2022-09-01T08:09:37.711Z,45.07
2022-09-01T08:10:28.664Z,42.85
2022-09-01T08:12:11.216Z,42.87
2022-09-01T08:13:15.310Z,42.69
2022-09-01T08:14:11.243Z,41.91
2022-09-01T08:15:41.480Z,41.64
2022-09-01T08:16:18.763Z,40.88
2022-09-01T08:17:34.072Z,39.82
2022-09-01T08:18:14.183Z,39.35
2022-09-01T08:19:18.365Z,38.86
2022-09-01T08:20:13.985Z,38.76
2022-09-01T08:21:11.304Z,37.81
2022-09-01T08:22:11.323Z,37.52
2022-09-01T08:23:11.324Z,36.96
2022-09-01T08:24:11.337Z,36.27
2022-09-01T08:25:11.345Z,35.80
2022-09-01T08:26:11.356Z,35.72
2022-09-01T08:27:11.373Z,35.13
2022-09-01T08:28:11.384Z,34.75
2022-09-01T08:29:11.392Z,34.47
2022-09-01T08:35:22.193Z,32.74
2022-09-01T08:37:20.754Z,31.46
2022-09-01T08:38:21.043Z,31.28
2022-09-01T08:39:20.777Z,31.18
2022-09-01T08:40:20.830Z,31.09
2022-09-01T08:41:20.798Z,31.18
2022-09-01T08:42:20.801Z,31.10
2022-09-01T08:43:21.002Z,30.60
2022-09-01T15:07:23.667Z,40.25
2022-09-01T15:08:23.747Z,40.05
2022-09-01T15:09:23.697Z,39.95
2022-09-01T15:10:25.349Z,39.67
2022-09-01T15:11:23.720Z,39.76
2022-09-01T15:12:23.737Z,39.67
2022-09-01T15:13:23.757Z,39.76
2022-09-01T15:14:23.772Z,39.67
2022-09-01T15:15:23.795Z,39.76
2022-09-01T15:16:23.814Z,39.76
2022-09-01T15:17:23.830Z,39.47
2022-09-01T15:18:23.847Z,39.57
2022-09-01T15:19:23.858Z,39.76
2022-09-01T15:20:23.883Z,40.05
2022-09-01T15:21:23.904Z,40.25
2022-09-01T15:22:23.921Z,40.73
2022-09-01T15:23:23.936Z,40.53
2022-09-01T15:24:23.953Z,40.63
2022-09-01T15:25:23.966Z,40.53
2022-09-01T15:26:23.993Z,40.83
2022-09-01T15:27:24.003Z,40.53
2022-09-01T15:28:24.018Z,40.34
2022-09-01T15:29:24.041Z,40.65
2022-09-01T15:30:24.065Z,40.34
2022-09-01T15:31:28.603Z,40.53
2022-09-01T15:32:28.027Z,40.63
2022-09-01T15:33:24.113Z,40.92
2022-09-01T15:34:24.138Z,40.44
2022-09-01T15:35:24.156Z,40.44
2022-09-01T15:36:24.176Z,40.53
2022-09-01T15:37:24.191Z,40.73
2022-09-01T15:38:29.788Z,40.65
2022-09-01T15:39:24.224Z,40.84
2022-09-01T15:40:26.986Z,40.46
2022-09-01T15:41:24.265Z,40.05
2022-09-01T15:42:24.286Z,40.25
2022-09-01T15:43:24.294Z,40.25
2022-09-01T15:44:24.311Z,39.95
2022-09-01T15:45:24.339Z,40.25
2022-09-01T15:46:24.393Z,40.44
2022-09-01T15:47:24.375Z,40.44
2022-09-01T15:48:24.385Z,40.44
2022-09-01T15:49:24.404Z,40.83
2022-09-01T15:50:27.603Z,40.73
2022-09-01T15:51:24.441Z,40.34
2022-09-01T15:52:24.462Z,41.00
2022-09-01T15:53:24.478Z,41.09
2022-09-01T15:54:29.712Z,41.09
2022-09-01T15:55:24.512Z,40.90
2022-09-01T15:56:24.530Z,40.71
2022-09-01T15:57:24.553Z,40.71
2022-09-01T15:58:27.177Z,40.11
2022-09-01T15:59:24.589Z,40.11
2022-09-01T16:00:24.673Z,40.11
2022-09-01T16:01:24.725Z,40.59
2022-09-01T16:02:24.714Z,40.59
2022-09-01T16:03:24.648Z,40.69
2022-09-01T16:04:27.719Z,40.50
2022-09-01T16:05:24.680Z,40.38
2022-09-01T16:06:24.697Z,40.38
2022-09-01T16:07:26.615Z,40.77
2022-09-01T16:08:24.746Z,40.47
2022-09-01T16:09:24.752Z,40.47
2022-09-01T16:10:24.768Z,40.57
2022-09-01T16:11:24.776Z,40.67
2022-09-01T16:12:24.791Z,40.67
2022-09-01T16:13:24.807Z,40.67
2022-09-01T16:14:24.831Z,40.67
2022-09-01T16:15:24.848Z,40.67
2022-09-01T16:16:24.956Z,40.96
2022-09-01T16:17:24.872Z,41.25
2022-09-01T16:18:24.884Z,40.77
2022-09-01T16:19:24.907Z,40.96
2022-09-01T16:20:24.917Z,41.25
2022-09-01T16:21:24.929Z,41.44
2022-09-01T16:22:24.946Z,41.66
2022-09-01T16:23:24.962Z,41.94
2022-09-01T16:24:24.976Z,42.33
2022-09-01T16:25:25.001Z,42.21
2022-09-01T16:26:25.014Z,42.24
2022-09-01T16:27:25.021Z,42.31
2022-09-01T16:28:25.046Z,42.60
2022-09-01T16:29:25.060Z,43.18
2022-09-01T16:30:25.073Z,42.89
2022-09-01T16:31:25.183Z,43.18
2022-09-01T16:32:25.102Z,43.28
2022-09-01T16:33:25.150Z,43.57
2022-09-01T16:34:28.343Z,44.15
2022-09-01T16:35:29.516Z,43.66
2022-09-01T16:36:25.155Z,43.95
2022-09-01T16:37:25.176Z,43.85
2022-09-01T16:38:25.190Z,43.95
2022-09-01T16:39:25.196Z,44.34
2022-09-01T16:40:25.265Z,44.53
2022-09-01T16:41:25.241Z,44.73
2022-09-01T16:42:25.248Z,44.80
2022-09-01T16:43:25.254Z,44.92
2022-09-01T16:44:25.445Z,45.00
2022-09-01T16:45:25.284Z,44.70
2022-09-01T16:46:25.366Z,45.38
2022-09-01T16:47:25.313Z,45.67
2022-09-01T16:48:25.334Z,45.48
2022-09-01T16:49:25.357Z,45.76
2022-09-01T16:50:25.355Z,45.57
2022-09-01T16:51:25.376Z,45.86
2022-09-01T16:52:25.382Z,45.96
2022-09-01T16:53:25.399Z,46.15
2022-09-01T16:54:25.416Z,46.25
2022-09-01T16:55:25.429Z,46.25
2022-09-01T16:56:25.445Z,46.44
2022-09-01T16:57:25.460Z,46.25
2022-09-01T16:58:25.465Z,46.15
2022-09-01T16:59:25.480Z,46.03
2022-09-01T17:00:25.532Z,46.51
2022-09-01T17:01:25.589Z,46.51
2022-09-01T17:02:25.588Z,46.64
2022-09-01T17:03:33.201Z,46.90
2022-09-01T17:04:25.547Z,46.71
2022-09-01T17:05:25.563Z,47.09
2022-09-01T17:06:25.575Z,47.00
2022-09-01T17:07:26.352Z,47.00
2022-09-01T17:08:25.609Z,47.09
2022-09-01T17:09:25.614Z,47.00
2022-09-01T17:10:25.629Z,47.09
2022-09-01T17:11:25.646Z,47.58
2022-09-01T17:12:25.656Z,47.58
2022-09-01T17:13:25.668Z,47.19
2022-09-01T17:14:25.689Z,47.58
2022-09-01T17:15:25.704Z,47.19
2022-09-01T17:16:25.872Z,47.09
2022-09-01T17:17:25.725Z,47.48
2022-09-01T17:18:25.743Z,47.19
2022-09-01T17:39:28.546Z,47.45
2022-09-01T17:40:28.646Z,47.45
2022-09-01T17:41:28.580Z,47.45
2022-09-01T17:43:51.222Z,47.36
2022-09-01T17:44:51.229Z,47.94
2022-09-01T17:45:51.271Z,47.65
2022-09-01T17:46:51.326Z,47.75
2022-09-01T17:47:51.275Z,47.65
2022-09-01T17:48:51.288Z,47.85
2022-09-01T17:49:51.292Z,48.03
2022-09-01T17:50:51.336Z,47.94
2022-09-01T17:51:51.327Z,47.94
2022-09-01T17:52:52.727Z,48.40
2022-09-01T17:53:51.348Z,48.30
2022-09-01T17:54:51.354Z,48.30
2022-09-01T17:55:51.369Z,48.61
2022-09-01T17:56:51.380Z,48.69
2022-09-01T17:57:51.401Z,48.79
2022-09-01T17:58:51.411Z,48.79
2022-09-01T17:59:51.419Z,49.07
2022-09-01T18:00:51.437Z,48.97
2022-09-01T18:01:51.492Z,49.17
2022-09-01T18:02:51.458Z,48.97
2022-09-01T18:03:51.468Z,48.97
2022-09-01T18:04:51.537Z,48.97
2022-09-01T18:05:51.624Z,49.17
2022-09-01T18:06:51.511Z,49.17
2022-09-01T18:07:51.520Z,49.37
2022-09-01T18:08:51.531Z,49.17
2022-09-01T18:09:51.541Z,49.37
2022-09-01T18:10:51.563Z,49.43
2022-09-01T18:11:51.578Z,49.15
2022-09-01T18:12:51.587Z,49.43
2022-09-01T18:13:53.748Z,49.43
2022-09-01T18:14:51.605Z,49.63
2022-09-01T18:15:52.051Z,49.53
2022-09-01T18:16:51.633Z,49.73
2022-09-01T18:17:51.642Z,49.63
2022-09-01T18:18:51.654Z,49.82
2022-09-01T18:19:51.675Z,49.82
2022-09-01T18:20:51.679Z,49.82
2022-09-01T18:21:51.698Z,49.73
2022-09-01T18:23:51.722Z,49.82
2022-09-01T18:24:51.729Z,49.73
2022-09-01T18:25:51.739Z,49.82
2022-09-01T18:26:51.757Z,50.49
2022-09-01T18:27:51.770Z,50.11
2022-09-01T18:28:51.777Z,50.21
2022-09-01T18:29:51.793Z,50.30
2022-09-01T18:30:53.205Z,50.40
2022-09-01T18:31:51.850Z,50.21
2022-09-01T18:32:51.833Z,50.30
2022-09-01T18:33:51.836Z,50.40
2022-09-01T18:34:51.850Z,50.49
2022-09-01T18:35:51.863Z,50.49
2022-09-01T18:36:51.873Z,50.30
2022-09-01T18:37:51.885Z,50.69
2022-09-01T18:38:51.898Z,50.66
2022-09-01T18:39:51.912Z,50.40
2022-09-01T18:40:51.978Z,50.78
2022-09-01T18:41:51.934Z,50.76
2022-09-01T18:42:51.950Z,50.66
2022-09-01T18:43:51.964Z,51.14
2022-09-01T18:44:51.968Z,50.85
2022-09-01T18:45:51.982Z,51.05
2022-09-01T18:46:52.082Z,51.05
2022-09-01T18:47:52.010Z,51.24
2022-09-01T18:48:52.025Z,51.24
2022-09-01T18:49:52.027Z,50.76
2022-09-01T18:50:52.045Z,51.14
2022-09-01T18:51:52.051Z,51.24
2022-09-01T18:52:52.072Z,51.34
2022-09-01T18:53:52.081Z,51.72
2022-09-01T18:54:52.095Z,51.24
2022-09-01T18:55:52.099Z,51.43
2022-09-01T18:56:52.113Z,51.34
2022-09-01T18:57:52.129Z,52.01
2022-09-01T18:58:52.140Z,51.72
2022-09-01T18:59:52.158Z,51.72
2022-09-01T19:00:53.860Z,51.72
2022-09-01T19:01:52.290Z,51.53
2022-09-01T19:02:52.302Z,51.82
2022-09-01T19:03:52.202Z,52.01
2022-09-01T19:04:52.210Z,52.11
2022-09-01T19:05:52.217Z,52.08
2022-09-01T19:06:52.234Z,52.01
2022-09-01T19:07:52.248Z,52.30
2022-09-01T19:08:52.254Z,52.37
2022-09-01T19:09:52.471Z,52.66
2022-09-01T19:10:52.477Z,52.27
2022-09-01T19:11:52.295Z,52.27
2022-09-01T19:12:52.312Z,52.56
2022-09-01T19:13:52.311Z,52.56
2022-09-01T19:14:52.524Z,52.47
2022-09-01T19:15:52.368Z,52.56
2022-09-01T19:16:52.354Z,52.47
2022-09-01T19:17:52.363Z,52.66
2022-09-01T19:18:52.374Z,52.95
2022-09-01T19:19:52.388Z,52.66
2022-09-01T19:20:52.391Z,52.56
2022-09-01T19:21:52.412Z,52.85
2022-09-01T19:22:52.422Z,52.85
2022-09-01T19:23:52.630Z,52.85
2022-09-01T19:24:52.439Z,52.95
2022-09-01T19:25:52.456Z,52.95
2022-09-01T19:26:52.458Z,53.43
2022-09-01T19:27:52.470Z,53.14
2022-09-01T19:28:52.489Z,53.33
2022-09-01T19:29:52.535Z,53.43
2022-09-01T19:30:52.561Z,53.62
2022-09-01T19:31:52.516Z,53.81
2022-09-01T19:32:52.528Z,53.62
2022-09-01T19:33:52.538Z,53.72
2022-09-01T19:34:52.557Z,53.62
2022-09-01T19:35:52.570Z,54.20
2022-09-01T19:36:52.591Z,54.20
2022-09-01T19:37:52.585Z,54.30
2022-09-01T19:38:52.604Z,54.10
2022-09-01T19:39:54.496Z,54.58
2022-09-01T19:40:52.627Z,54.56
2022-09-01T19:41:52.630Z,54.56
2022-09-01T19:42:52.647Z,54.56
2022-09-01T19:43:52.661Z,54.75
2022-09-01T19:44:52.671Z,54.56
2022-09-01T19:45:52.798Z,54.65
2022-09-01T19:46:52.685Z,55.33
2022-09-01T19:47:52.699Z,55.33
2022-09-01T19:48:52.717Z,55.33
2022-09-01T19:49:52.725Z,55.52
2022-09-01T19:50:52.737Z,54.94
2022-09-01T19:51:52.753Z,55.43
2022-09-01T19:52:52.760Z,55.43
2022-09-01T19:53:52.763Z,55.62
2022-09-01T19:54:52.777Z,55.81
2022-09-01T19:55:52.794Z,56.29
2022-09-01T19:56:52.798Z,56.38
2022-09-01T19:57:53.889Z,56.48
2022-09-01T19:58:52.819Z,56.58
2022-09-01T19:59:52.837Z,57.06
2022-09-01T20:00:52.848Z,56.67
2022-09-01T20:01:52.966Z,56.87
2022-09-01T20:02:52.933Z,56.93
2022-09-01T20:03:52.873Z,57.06
2022-09-01T20:04:56.984Z,57.54
2022-09-01T20:05:52.898Z,57.25
2022-09-01T20:06:52.908Z,57.54
2022-09-01T20:07:52.919Z,57.45
2022-09-01T20:08:52.931Z,57.32
2022-09-01T20:09:52.942Z,57.25
2022-09-01T20:10:56.189Z,57.54
2022-09-01T20:11:52.961Z,57.45
2022-09-01T20:12:52.981Z,57.99
2022-09-01T20:13:52.995Z,58.37
2022-09-01T20:14:52.995Z,58.31
2022-09-01T20:15:53.051Z,58.70
2022-09-01T20:16:53.026Z,58.57
2022-09-01T20:17:53.028Z,58.57
2022-09-01T20:18:53.438Z,58.76
2022-09-01T20:19:53.058Z,58.57
2022-09-01T20:20:53.071Z,58.57
2022-09-01T20:21:53.072Z,58.76
2022-09-01T20:22:53.085Z,58.95
2022-09-01T20:23:53.101Z,59.24
2022-09-01T20:24:58.246Z,59.53
2022-09-01T20:25:53.123Z,59.72
2022-09-01T20:26:53.128Z,59.44
2022-09-01T20:27:53.145Z,59.44
2022-09-01T20:28:53.150Z,59.82
2022-09-01T20:29:53.162Z,59.63
2022-09-01T20:30:53.246Z,59.53
2022-09-01T20:31:53.191Z,60.30
2022-09-01T20:32:53.210Z,60.11
2022-09-01T20:33:53.214Z,60.21
2022-09-01T20:34:53.216Z,60.37
2022-09-01T20:35:53.225Z,60.27
2022-09-01T20:36:53.243Z,60.46
2022-09-01T20:37:53.247Z,60.66
2022-09-01T20:38:53.259Z,60.69
2022-09-01T20:39:53.273Z,60.66
2022-09-01T20:40:53.354Z,60.66
2022-09-01T20:41:53.297Z,60.94
2022-09-01T20:42:53.310Z,60.75
2022-09-01T20:43:53.318Z,61.04
2022-09-01T20:44:53.324Z,60.94
2022-09-01T20:45:53.407Z,60.75
2022-09-01T20:46:53.346Z,60.94
2022-09-01T20:47:53.357Z,61.04
2022-09-01T20:48:53.366Z,61.52
2022-09-01T20:49:53.385Z,61.14
2022-09-01T20:50:53.387Z,61.71
2022-09-01T20:51:53.408Z,61.43
2022-09-01T20:52:53.412Z,62.00
2022-09-01T20:53:53.421Z,61.71
2022-09-01T20:54:53.436Z,61.71
2022-09-01T20:55:53.448Z,61.81
2022-09-01T20:56:53.459Z,62.00
2022-09-01T20:57:53.461Z,62.00
2022-09-01T20:58:53.486Z,61.81
2022-09-01T20:59:53.484Z,61.81
2022-09-01T21:00:53.495Z,61.91
2022-09-01T21:01:53.565Z,61.91
2022-09-01T21:02:53.580Z,62.48
2022-09-01T21:03:54.488Z,61.81
2022-09-01T21:04:53.539Z,62.68
2022-09-01T21:05:53.555Z,62.10
2022-09-01T21:06:53.557Z,62.77
2022-09-01T21:07:53.568Z,62.38
2022-09-01T21:08:53.588Z,61.91
2022-09-01T21:09:53.588Z,62.48
2022-09-01T21:10:53.608Z,62.58
2022-09-01T21:11:53.620Z,62.87
2022-09-01T21:12:53.622Z,62.87
2022-09-01T21:13:53.640Z,62.48
2022-09-01T21:14:53.653Z,62.77
2022-09-01T21:15:53.661Z,62.77
2022-09-01T21:16:53.762Z,62.87
2022-09-01T21:17:53.681Z,62.87
2022-09-01T21:18:53.685Z,62.68
2022-09-01T21:19:53.694Z,62.68
2022-09-01T21:20:53.717Z,63.15
2022-09-01T21:21:53.723Z,62.96
2022-09-01T21:22:53.729Z,62.87
2022-09-01T21:23:53.738Z,62.96
2022-09-01T21:24:53.754Z,62.96
2022-09-01T21:25:53.758Z,62.87
2022-09-01T21:26:53.776Z,62.87
2022-09-01T21:27:53.791Z,63.15
2022-09-01T21:28:53.791Z,63.15
2022-09-01T21:29:53.809Z,63.35
2022-09-01T21:30:53.869Z,63.15
2022-09-01T21:31:53.821Z,63.54
2022-09-01T21:32:53.840Z,63.51
2022-09-01T21:33:53.853Z,63.32
2022-09-01T21:34:53.852Z,63.41
2022-09-01T21:35:53.865Z,63.41
2022-09-01T21:36:55.380Z,63.60
2022-09-01T21:37:53.882Z,63.51
2022-09-01T21:38:53.897Z,63.99
2022-09-01T21:39:53.908Z,63.99
2022-09-01T21:40:53.997Z,64.18
2022-09-01T21:41:53.926Z,63.99
2022-09-01T21:42:53.942Z,64.09
2022-09-01T21:43:53.956Z,64.09
2022-09-01T21:44:54.299Z,63.99
2022-09-01T21:45:54.024Z,63.99
2022-09-01T21:46:53.977Z,63.99
2022-09-01T21:47:53.989Z,64.37
2022-09-01T21:48:54.005Z,64.37
2022-09-01T21:49:54.015Z,64.47
2022-09-01T21:50:54.020Z,64.37
2022-09-01T21:51:54.038Z,64.37
2022-09-01T21:52:54.048Z,64.76
2022-09-01T21:53:54.051Z,64.47
2022-09-01T21:54:54.061Z,64.28
2022-09-01T21:55:54.079Z,64.47
2022-09-01T21:56:54.089Z,64.66
2022-09-01T21:57:54.093Z,64.85
2022-09-01T21:58:54.102Z,64.76
2022-09-01T21:59:54.121Z,64.85
2022-09-01T22:00:54.169Z,64.76
2022-09-01T22:01:54.223Z,64.85
2022-09-01T22:02:54.265Z,64.76
2022-09-01T22:03:54.162Z,64.95
2022-09-01T22:04:54.166Z,64.76
2022-09-01T22:05:54.175Z,65.14
2022-09-01T22:06:54.184Z,65.33
2022-09-01T22:07:54.197Z,65.05
2022-09-01T22:08:54.204Z,65.14
2022-09-01T22:09:54.215Z,65.43
2022-09-01T22:10:54.224Z,65.05
2022-09-01T22:11:54.235Z,65.05
2022-09-01T22:12:54.247Z,64.95
2022-09-01T22:13:54.264Z,64.85
2022-09-01T22:14:54.267Z,65.53
2022-09-01T22:15:54.276Z,65.62
2022-09-01T22:16:54.425Z,65.43
2022-09-01T22:17:54.296Z,65.43
2022-09-01T22:18:54.316Z,65.33
2022-09-01T22:19:54.317Z,65.53
2022-09-01T22:20:54.327Z,65.33
2022-09-01T22:21:54.337Z,65.23
2022-09-01T22:22:54.349Z,65.72
2022-09-01T22:23:54.359Z,65.33
2022-09-01T22:24:54.369Z,65.23
2022-09-01T22:25:54.384Z,65.62
2022-09-01T22:26:54.398Z,65.72
2022-09-01T22:27:54.399Z,66.00
2022-09-01T22:28:54.416Z,65.72
2022-09-01T22:29:54.419Z,65.62
2022-09-01T22:30:54.503Z,66.00
2022-09-01T22:31:54.445Z,65.91
2022-09-01T22:32:54.451Z,66.20
2022-09-01T22:33:54.465Z,66.26
2022-09-01T22:34:54.470Z,66.16
2022-09-01T22:35:54.479Z,66.26
2022-09-01T22:36:54.499Z,65.78
2022-09-01T22:37:54.506Z,66.07
2022-09-01T22:38:54.518Z,66.16
2022-09-01T22:39:54.529Z,66.26
2022-09-01T22:40:54.531Z,66.10
2022-09-01T22:41:54.547Z,66.16
2022-09-01T22:42:54.558Z,66.07
2022-09-01T22:43:54.560Z,66.16
2022-09-01T22:44:54.581Z,66.46
2022-09-01T22:45:54.628Z,66.07
2022-09-01T22:46:54.592Z,66.55
2022-09-01T22:47:54.609Z,66.16
2022-09-01T22:48:54.610Z,66.26
2022-09-01T22:49:54.621Z,66.07
2022-09-01T22:50:54.642Z,66.64
2022-09-01T22:51:54.640Z,66.64
2022-09-01T22:52:54.661Z,66.26
2022-09-01T22:53:54.663Z,66.26
2022-09-01T22:54:54.680Z,66.55
2022-09-01T22:55:54.687Z,66.36
2022-09-01T23:17:16.254Z,67.22
2022-09-01T23:18:16.251Z,67.13
2022-09-01T23:19:16.266Z,67.13
2022-09-01T23:20:16.270Z,66.93